createdAt,value
2023-02-24T00:01:00.729Z,1.28
2023-02-24T00:03:27.544Z,1.22
2023-02-24T00:05:54.422Z,1.20
2023-02-24T00:08:21.162Z,1.14
2023-02-24T00:10:47.919Z,0.93
2023-02-24T00:13:16.097Z,0.70
2023-02-24T00:15:42.815Z,0.94
2023-02-24T00:18:09.632Z,1.00
2023-02-24T00:20:36.438Z,1.05
2023-02-24T00:23:04.323Z,1.03
2023-02-24T00:25:31.049Z,0.96
2023-02-24T00:27:58.077Z,0.95
2023-02-24T00:30:26.281Z,0.93
2023-02-24T00:32:53.105Z,0.86
2023-02-24T00:35:19.896Z,0.81
2023-02-24T00:37:46.622Z,0.90
2023-02-24T00:40:13.963Z,0.95
2023-02-24T00:42:40.727Z,0.98
2023-02-24T00:45:08.714Z,0.95
2023-02-24T00:47:38.744Z,0.97
2023-02-24T00:50:06.833Z,0.95
2023-02-24T00:52:33.630Z,0.87
2023-02-24T00:55:00.388Z,0.84
2023-02-24T00:57:27.241Z,0.76
2023-02-24T00:59:54.294Z,0.76
2023-02-24T01:02:21.022Z,0.77
2023-02-24T01:04:49.194Z,0.71
2023-02-24T01:07:15.915Z,0.74
2023-02-24T01:09:42.668Z,0.77
2023-02-24T01:12:11.037Z,0.76
2023-02-24T01:14:38.525Z,0.79
2023-02-24T01:17:07.222Z,0.80
2023-02-24T01:19:35.081Z,0.83
2023-02-24T01:22:04.988Z,0.76
2023-02-24T01:24:34.432Z,0.72
2023-02-24T01:27:01.861Z,0.64
2023-02-24T01:29:28.957Z,0.58
2023-02-24T01:31:55.965Z,0.56
2023-02-24T01:34:22.743Z,0.42
2023-02-24T01:36:49.502Z,0.44
2023-02-24T01:39:17.747Z,0.44
2023-02-24T01:41:46.377Z,0.48
2023-02-24T01:44:46.534Z,0.51
2023-02-24T01:47:14.610Z,0.53
2023-02-24T01:49:43.818Z,0.51
2023-02-24T01:52:15.097Z,0.51
2023-02-24T01:54:46.167Z,0.54
2023-02-24T01:57:15.721Z,0.53
2023-02-24T01:59:46.163Z,0.47
2023-02-24T02:02:14.236Z,0.39
2023-02-24T02:04:45.201Z,0.34
2023-02-24T02:07:14.675Z,0.11
2023-02-24T02:09:44.153Z,0.12
2023-02-24T02:12:11.492Z,0.26
2023-02-24T02:14:41.477Z,0.38
2023-02-24T02:17:18.125Z,0.51
2023-02-24T02:20:18.489Z,0.64
2023-02-24T02:23:18.970Z,0.71
2023-02-24T02:26:07.405Z,0.64
2023-02-24T02:28:53.755Z,0.57
2023-02-24T02:31:44.965Z,0.52
2023-02-24T02:34:24.008Z,0.41
2023-02-24T02:37:00.831Z,0.32
2023-02-24T02:39:35.101Z,0.28
2023-02-24T02:42:08.559Z,0.39
2023-02-24T02:44:39.157Z,0.41
2023-02-24T02:47:14.024Z,0.44
2023-02-24T02:49:45.492Z,0.45
2023-02-24T02:52:17.826Z,0.50
2023-02-24T02:54:48.673Z,0.47
2023-02-24T02:57:19.772Z,0.44
2023-02-24T02:59:51.882Z,0.15
2023-02-24T03:02:23.269Z,0.35
2023-02-24T03:04:55.051Z,0.36
2023-02-24T03:07:24.031Z,0.36
2023-02-24T03:09:55.759Z,0.35
2023-02-24T03:12:24.422Z,0.34
2023-02-24T03:14:56.569Z,0.38
2023-02-24T03:17:26.150Z,0.31
2023-02-24T03:20:00.568Z,0.20
2023-02-24T03:22:33.702Z,0.16
2023-02-24T03:25:00.988Z,0.18
2023-02-24T03:27:31.741Z,0.23
2023-02-24T03:30:02.665Z,0.21
2023-02-24T03:32:32.144Z,0.24
2023-02-24T03:35:07.885Z,0.20
2023-02-24T03:37:35.579Z,0.05
2023-02-24T03:40:08.408Z,0.06
2023-02-24T03:42:35.502Z,0.13
2023-02-24T03:45:02.933Z,0.11
2023-02-24T03:47:29.813Z,0.09
2023-02-24T03:49:56.540Z,0.05
2023-02-24T03:52:31.066Z,0.01
2023-02-24T03:55:16.081Z,-0.00
2023-02-24T03:57:54.417Z,0.01
2023-02-24T04:00:27.120Z,0.04
2023-02-24T04:03:00.872Z,0.09
2023-02-24T04:05:30.356Z,0.09
2023-02-24T04:08:02.355Z,0.07
2023-02-24T04:10:35.717Z,0.11
2023-02-24T04:13:10.281Z,0.07
2023-02-24T04:15:41.845Z,0.05
2023-02-24T04:18:13.918Z,0.05
2023-02-24T04:20:42.275Z,0.02
2023-02-24T04:23:14.787Z,0.05
2023-02-24T04:25:45.291Z,-0.01
2023-02-24T04:28:13.238Z,-0.08
2023-02-24T04:30:43.406Z,-0.12
2023-02-24T04:33:10.261Z,-0.20
2023-02-24T04:35:38.008Z,-0.31
2023-02-24T04:38:04.928Z,-0.32
2023-02-24T04:40:33.114Z,-0.30
2023-02-24T04:42:59.877Z,-0.25
2023-02-24T04:45:28.313Z,-0.29
2023-02-24T04:47:56.906Z,-0.35
2023-02-24T04:50:25.479Z,-0.25
2023-02-24T04:52:53.282Z,-0.19
2023-02-24T04:55:21.130Z,-0.14
2023-02-24T04:57:49.682Z,-0.13
2023-02-24T05:00:17.249Z,-0.14
2023-02-24T05:02:44.028Z,-0.24
2023-02-24T05:05:10.781Z,-0.22
2023-02-24T05:07:37.529Z,-0.27
2023-02-24T05:10:04.704Z,-0.21
2023-02-24T05:12:31.568Z,-0.10
2023-02-24T05:14:59.681Z,-0.05
2023-02-24T05:17:26.464Z,-0.27
2023-02-24T05:19:53.206Z,-0.16
2023-02-24T05:22:19.929Z,-0.16
2023-02-24T05:24:46.862Z,-0.11
2023-02-24T05:27:13.571Z,-0.01
2023-02-24T05:29:40.334Z,-0.04
2023-02-24T05:32:08.749Z,-0.12
2023-02-24T05:34:35.620Z,-0.11
2023-02-24T05:37:03.179Z,-0.06
2023-02-24T05:39:30.116Z,0.00
2023-02-24T05:41:57.353Z,0.08
2023-02-24T05:44:26.756Z,0.04
2023-02-24T05:46:54.919Z,-0.01
2023-02-24T05:49:25.053Z,-0.09
2023-02-24T05:51:53.435Z,-0.11
2023-02-24T05:54:21.656Z,-0.09
2023-02-24T05:56:49.093Z,-0.13
2023-02-24T05:59:16.053Z,-0.17
2023-02-24T06:01:42.874Z,-0.15
2023-02-24T06:04:09.971Z,-0.07
2023-02-24T06:06:40.261Z,-0.08
2023-02-24T06:09:09.491Z,-0.04
2023-02-24T06:11:36.794Z,-0.01
2023-02-24T06:14:03.982Z,-0.09
2023-02-24T06:16:30.796Z,-0.07
2023-02-24T06:18:57.597Z,-0.21
2023-02-24T06:21:24.641Z,-0.16
2023-02-24T06:23:52.854Z,0.02
2023-02-24T06:26:19.750Z,0.12
2023-02-24T06:28:47.331Z,0.18
2023-02-24T06:31:14.632Z,0.23
2023-02-24T06:33:41.729Z,0.29
2023-02-24T06:36:08.906Z,0.31
2023-02-24T06:38:37.134Z,0.39
2023-02-24T06:41:07.163Z,0.43
2023-02-24T06:43:34.268Z,0.54
2023-02-24T06:46:02.433Z,0.59
2023-02-24T06:48:29.326Z,0.63
2023-02-24T06:50:56.114Z,0.70
2023-02-24T06:53:22.868Z,0.71
2023-02-24T06:55:51.750Z,0.78
2023-02-24T06:58:21.609Z,0.80
2023-02-24T07:00:48.888Z,0.76
2023-02-24T07:03:17.152Z,0.90
2023-02-24T07:05:45.968Z,0.94
2023-02-24T07:08:14.211Z,1.00
2023-02-24T07:10:41.440Z,1.01
2023-02-24T07:13:08.166Z,1.05
2023-02-24T07:15:36.450Z,1.10
2023-02-24T07:18:03.775Z,1.13
2023-02-24T07:20:30.701Z,1.20
2023-02-24T07:22:57.864Z,1.25
2023-02-24T07:25:24.787Z,1.30
2023-02-24T07:27:51.505Z,1.35
2023-02-24T07:30:18.850Z,1.44
2023-02-24T07:32:49.002Z,1.53
2023-02-24T07:35:16.283Z,1.60
2023-02-24T07:37:43.924Z,1.75
2023-02-24T07:40:12.409Z,1.91
2023-02-24T07:42:39.358Z,2.09
2023-02-24T07:45:08.359Z,2.33
2023-02-24T07:47:35.344Z,2.54
2023-02-24T07:50:04.150Z,2.76
2023-02-24T07:52:31.089Z,2.90
2023-02-24T07:54:57.898Z,3.04
2023-02-24T07:57:24.740Z,3.15
2023-02-24T07:59:51.480Z,3.28
2023-02-24T08:02:18.328Z,3.49
2023-02-24T08:04:45.663Z,3.64
2023-02-24T08:07:13.872Z,3.81
2023-02-24T08:09:40.713Z,3.98
2023-02-24T08:12:07.566Z,4.10
2023-02-24T08:14:34.748Z,4.19
2023-02-24T08:17:02.690Z,4.24
2023-02-24T08:19:31.440Z,4.28
2023-02-24T08:22:00.231Z,4.27
2023-02-24T08:24:28.937Z,4.32
2023-02-24T08:26:56.898Z,4.42
2023-02-24T08:29:23.860Z,4.33
2023-02-24T08:31:51.188Z,4.41
2023-02-24T08:34:18.485Z,4.35
2023-02-24T08:36:45.407Z,4.39
2023-02-24T08:39:12.485Z,4.52
2023-02-24T08:41:41.053Z,4.59
2023-02-24T08:44:08.244Z,4.83
2023-02-24T08:46:35.087Z,4.98
2023-02-24T08:49:01.849Z,5.24
2023-02-24T08:51:31.805Z,5.41
2023-02-24T08:54:01.035Z,5.64
2023-02-24T08:56:29.734Z,5.79
2023-02-24T08:58:59.652Z,6.01
2023-02-24T09:01:28.708Z,6.23
2023-02-24T09:03:57.174Z,6.44
2023-02-24T09:06:34.464Z,6.63
2023-02-24T09:09:01.450Z,6.77
2023-02-24T09:11:28.328Z,6.90
2023-02-24T09:13:55.077Z,7.02
2023-02-24T09:16:23.299Z,6.93
2023-02-24T09:18:50.371Z,7.01
2023-02-24T09:21:17.234Z,7.18
2023-02-24T09:23:44.001Z,7.32
2023-02-24T09:26:10.753Z,7.51
2023-02-24T09:28:37.736Z,7.45
2023-02-24T09:31:04.860Z,7.25
2023-02-24T09:33:35.175Z,7.16
2023-02-24T09:36:04.951Z,6.85
2023-02-24T09:38:32.032Z,6.98
2023-02-24T09:41:02.782Z,7.15
2023-02-24T09:43:31.962Z,7.11
2023-02-24T09:46:05.240Z,7.26
2023-02-24T09:48:39.419Z,7.31
2023-02-24T09:51:06.273Z,7.11
2023-02-24T09:53:35.518Z,7.34
2023-02-24T09:56:08.473Z,7.40
2023-02-24T09:58:44.260Z,7.40
2023-02-24T10:01:23.417Z,7.16
2023-02-24T10:03:56.855Z,7.61
2023-02-24T10:06:26.308Z,7.85
2023-02-24T10:08:58.008Z,8.18
2023-02-24T10:11:26.414Z,8.15
2023-02-24T10:13:55.089Z,8.46
2023-02-24T10:16:23.161Z,8.70
2023-02-24T10:18:55.874Z,8.81
2023-02-24T10:21:28.517Z,9.03
2023-02-24T10:24:07.787Z,9.20
2023-02-24T10:26:45.445Z,8.91
2023-02-24T10:29:28.121Z,9.09
2023-02-24T10:32:07.493Z,9.39
2023-02-24T10:34:35.689Z,9.66
2023-02-24T10:37:19.338Z,9.57
2023-02-24T10:39:57.712Z,9.42
2023-02-24T10:42:27.389Z,9.50
2023-02-24T10:45:09.869Z,9.14
2023-02-24T10:47:36.777Z,9.26
2023-02-24T10:50:06.008Z,9.05
2023-02-24T10:52:36.120Z,8.80
2023-02-24T10:55:06.441Z,9.29
2023-02-24T10:57:33.248Z,9.60
2023-02-24T11:00:00.431Z,9.77
2023-02-24T11:02:27.421Z,10.06
2023-02-24T11:04:55.339Z,10.24
2023-02-24T11:07:23.868Z,10.38
2023-02-24T11:10:03.241Z,10.53
2023-02-24T11:12:30.353Z,10.70
2023-02-24T11:15:01.091Z,10.78
2023-02-24T11:17:28.030Z,10.84
2023-02-24T11:19:58.758Z,10.93
2023-02-24T11:22:32.582Z,10.95
2023-02-24T11:25:05.723Z,10.98
2023-02-24T11:27:33.272Z,11.04
2023-02-24T11:30:14.871Z,11.08
2023-02-24T11:33:05.139Z,10.90
2023-02-24T11:35:39.177Z,10.66
2023-02-24T11:38:16.133Z,10.88
2023-02-24T11:40:46.540Z,10.89
2023-02-24T11:43:17.616Z,10.90
2023-02-24T11:45:48.414Z,10.93
2023-02-24T11:48:19.484Z,10.89
2023-02-24T11:50:50.336Z,10.99
2023-02-24T11:53:28.550Z,10.96
2023-02-24T11:56:01.601Z,10.92
2023-02-24T11:58:35.630Z,10.85
2023-02-24T12:01:10.179Z,10.79
2023-02-24T12:03:43.835Z,10.56
2023-02-24T12:06:19.320Z,10.52
2023-02-24T12:08:53.042Z,10.52
2023-02-24T12:11:28.166Z,10.61
2023-02-24T12:14:06.837Z,10.68
2023-02-24T12:16:39.316Z,10.73
2023-02-24T12:19:15.228Z,10.79
2023-02-24T12:21:44.903Z,10.92
2023-02-24T12:24:14.518Z,10.81
2023-02-24T12:26:51.176Z,10.94
2023-02-24T12:29:37.392Z,10.97
2023-02-24T12:32:14.149Z,10.86
2023-02-24T12:34:53.162Z,10.95
2023-02-24T12:37:36.781Z,10.60
2023-02-24T12:40:15.986Z,10.81
2023-02-24T12:42:49.884Z,10.84
2023-02-24T12:45:22.017Z,10.71
2023-02-24T12:48:00.831Z,10.59
2023-02-24T12:50:37.810Z,10.59
2023-02-24T12:53:13.308Z,10.51
2023-02-24T12:55:50.566Z,10.51
2023-02-24T12:58:21.811Z,10.28
2023-02-24T13:01:06.143Z,10.08
2023-02-24T13:03:49.563Z,9.92
2023-02-24T13:06:24.640Z,9.93
2023-02-24T13:09:00.144Z,9.93
2023-02-24T13:11:39.940Z,9.77
2023-02-24T13:14:14.512Z,9.59
2023-02-24T13:16:41.369Z,9.57
2023-02-24T13:19:20.215Z,9.67
2023-02-24T13:22:01.988Z,9.75
2023-02-24T13:24:35.777Z,9.81
2023-02-24T13:27:22.133Z,9.90
2023-02-24T13:29:50.953Z,9.54
2023-02-24T13:32:31.795Z,9.68
2023-02-24T13:35:02.114Z,9.76
2023-02-24T13:37:32.044Z,9.86
2023-02-24T13:39:59.134Z,9.82
2023-02-24T13:42:28.898Z,9.71
2023-02-24T13:45:04.180Z,9.82
2023-02-24T13:48:07.382Z,9.90
2023-02-24T13:50:40.876Z,9.95
2023-02-24T13:53:28.446Z,9.99
2023-02-24T13:56:18.354Z,9.88
2023-02-24T13:59:04.029Z,9.69
2023-02-24T14:01:33.407Z,9.44
2023-02-24T14:04:06.780Z,9.48
2023-02-24T14:06:40.082Z,9.12
2023-02-24T14:09:09.589Z,9.11
2023-02-24T14:11:38.869Z,9.09
2023-02-24T14:14:16.066Z,9.04
2023-02-24T14:16:46.434Z,8.98
2023-02-24T14:19:15.411Z,8.96
2023-02-24T14:21:48.853Z,9.03
2023-02-24T14:24:15.865Z,8.63
2023-02-24T14:26:45.006Z,8.61
2023-02-24T14:29:18.599Z,8.44
2023-02-24T14:31:47.836Z,8.58
2023-02-24T14:34:19.924Z,8.66
2023-02-24T14:36:48.431Z,8.42
2023-02-24T14:39:17.408Z,8.22
2023-02-24T14:41:45.012Z,8.11
2023-02-24T14:44:21.120Z,8.23
2023-02-24T14:46:50.685Z,8.11
2023-02-24T14:49:21.140Z,8.21
2023-02-24T14:51:50.627Z,8.23
2023-02-24T14:54:25.805Z,8.17
2023-02-24T14:56:52.912Z,7.98
2023-02-24T14:59:28.490Z,7.97
2023-02-24T15:01:57.095Z,7.98
2023-02-24T15:04:32.105Z,7.97
2023-02-24T15:07:01.784Z,7.94
2023-02-24T15:09:35.500Z,7.88
2023-02-24T15:12:13.366Z,7.82
2023-02-24T15:14:47.230Z,7.79
2023-02-24T15:17:18.139Z,7.66
2023-02-24T15:19:44.948Z,7.69
2023-02-24T15:22:24.917Z,7.47
2023-02-24T15:24:53.361Z,7.49
2023-02-24T15:27:24.496Z,7.37
2023-02-24T15:30:05.164Z,7.09
2023-02-24T15:32:35.195Z,7.17
2023-02-24T15:35:02.550Z,7.12
2023-02-24T15:37:37.596Z,7.09
2023-02-24T15:40:15.842Z,6.89
2023-02-24T15:42:50.226Z,6.89
2023-02-24T15:45:30.718Z,6.88
2023-02-24T15:47:59.841Z,6.85
2023-02-24T15:50:27.679Z,6.73
2023-02-24T15:52:56.947Z,6.64
2023-02-24T15:55:25.871Z,6.44
2023-02-24T15:57:59.126Z,6.43
2023-02-24T16:00:27.686Z,6.39
2023-02-24T16:02:54.556Z,6.31
2023-02-24T16:05:21.317Z,6.24
2023-02-24T16:07:49.507Z,6.18
2023-02-24T16:10:23.496Z,6.05
2023-02-24T16:12:53.301Z,5.93
2023-02-24T16:15:24.075Z,5.83
2023-02-24T16:17:52.732Z,5.84
2023-02-24T16:20:22.104Z,5.64
2023-02-24T16:22:48.855Z,5.50
2023-02-24T16:25:16.388Z,5.49
2023-02-24T16:27:45.667Z,5.36
2023-02-24T16:30:16.409Z,5.26
2023-02-24T16:32:43.883Z,4.95
2023-02-24T16:35:12.591Z,4.83
2023-02-24T16:37:40.195Z,4.74
2023-02-24T16:40:19.261Z,4.62
2023-02-24T16:42:46.337Z,4.49
2023-02-24T16:45:13.485Z,4.40
2023-02-24T16:47:40.913Z,4.26
2023-02-24T16:50:17.278Z,4.20
2023-02-24T16:52:44.208Z,4.03
2023-02-24T16:55:12.449Z,4.05
2023-02-24T16:57:39.194Z,3.93
2023-02-24T17:00:07.336Z,3.84
2023-02-24T17:02:34.269Z,3.73
2023-02-24T17:05:01.239Z,3.59
2023-02-24T17:07:29.409Z,3.44
2023-02-24T17:09:56.261Z,3.43
2023-02-24T17:12:23.000Z,3.31
2023-02-24T17:14:49.867Z,3.25
2023-02-24T17:17:16.723Z,3.20
2023-02-24T17:19:43.521Z,3.12
2023-02-24T17:22:10.284Z,3.11
2023-02-24T17:24:38.497Z,2.99
2023-02-24T17:27:05.226Z,2.93
2023-02-24T17:29:32.079Z,2.86
2023-02-24T17:31:59.041Z,2.86
2023-02-24T17:34:26.135Z,2.79
2023-02-24T17:36:53.031Z,2.67
2023-02-24T17:39:19.755Z,2.65
2023-02-24T17:41:47.965Z,2.60
2023-02-24T17:44:14.833Z,2.53
2023-02-24T17:46:41.693Z,2.47
2023-02-24T17:49:08.732Z,2.43
2023-02-24T17:51:35.445Z,2.42
2023-02-24T17:54:02.212Z,2.36
2023-02-24T17:56:28.994Z,2.37
2023-02-24T17:58:57.181Z,2.32
2023-02-24T18:01:23.997Z,2.23
2023-02-24T18:03:50.755Z,2.24
2023-02-24T18:06:17.589Z,2.26
2023-02-24T18:08:44.351Z,2.29
2023-02-24T18:11:15.344Z,2.33
2023-02-24T18:13:42.424Z,2.29
2023-02-24T18:16:12.948Z,2.28
2023-02-24T18:18:40.592Z,2.33
2023-02-24T18:21:07.938Z,2.23
2023-02-24T18:23:35.200Z,2.25
2023-02-24T18:26:03.072Z,2.23
2023-02-24T18:28:30.057Z,2.18
2023-02-24T18:30:56.941Z,2.18
2023-02-24T18:33:25.310Z,2.16
2023-02-24T18:35:57.428Z,2.14
2023-02-24T18:38:24.226Z,2.22
2023-02-24T18:40:57.387Z,2.22
2023-02-24T18:43:24.220Z,2.36
2023-02-24T18:45:56.287Z,2.36
2023-02-24T18:48:23.225Z,2.39
2023-02-24T18:50:52.828Z,2.46
2023-02-24T18:53:20.178Z,2.61
2023-02-24T18:55:47.033Z,2.63
2023-02-24T18:58:14.809Z,2.69
2023-02-24T19:00:42.437Z,2.72
2023-02-24T19:03:09.325Z,2.79
2023-02-24T19:05:38.764Z,2.88
2023-02-24T19:08:07.251Z,2.87
2023-02-24T19:10:35.461Z,3.03
2023-02-24T19:13:02.331Z,3.06
2023-02-24T19:15:29.050Z,3.29
2023-02-24T19:17:55.895Z,3.41
2023-02-24T19:20:22.652Z,3.46
2023-02-24T19:22:51.614Z,3.44
2023-02-24T19:25:19.961Z,3.34
2023-02-24T19:27:46.764Z,3.35
2023-02-24T19:30:14.603Z,3.27
2023-02-24T19:32:41.997Z,3.06
2023-02-24T19:35:09.783Z,3.05
2023-02-24T19:37:36.647Z,2.96
2023-02-24T19:40:09.993Z,3.01
2023-02-24T19:42:50.462Z,3.00
2023-02-24T19:45:49.436Z,2.92
2023-02-24T19:48:41.021Z,3.06
2023-02-24T19:54:41.051Z,2.97
2023-02-24T19:57:24.988Z,2.95
2023-02-24T19:59:56.634Z,3.01
2023-02-24T20:02:30.100Z,3.07
2023-02-24T20:08:22.068Z,3.25
2023-02-24T20:11:01.691Z,3.26
2023-02-24T20:13:37.697Z,3.36
2023-02-24T20:16:44.561Z,3.34
2023-02-24T20:19:32.309Z,3.42
2023-02-24T20:22:41.196Z,3.42
2023-02-24T20:25:33.103Z,3.46
2023-02-24T20:31:23.584Z,3.62
2023-02-24T20:33:52.982Z,3.64
2023-02-24T20:36:22.972Z,3.74
2023-02-24T20:38:50.968Z,3.80
2023-02-24T20:41:19.553Z,3.82
2023-02-24T20:43:46.835Z,3.85
2023-02-24T20:46:15.906Z,3.93
2023-02-24T20:48:43.479Z,3.88
2023-02-24T20:51:12.463Z,3.93
2023-02-24T20:53:51.057Z,4.09
2023-02-24T20:56:25.110Z,3.97
2023-02-24T20:58:53.280Z,4.05
2023-02-24T21:01:20.887Z,4.15
2023-02-24T21:03:48.218Z,4.09
2023-02-24T21:06:17.728Z,4.10
2023-02-24T21:08:44.769Z,4.13
2023-02-24T21:11:12.770Z,4.04
2023-02-24T21:13:40.622Z,3.98
2023-02-24T21:16:08.164Z,3.89
2023-02-24T21:18:35.767Z,3.90
2023-02-24T21:21:02.647Z,3.89
2023-02-24T21:23:30.767Z,3.96
2023-02-24T21:25:57.523Z,3.84
2023-02-24T21:28:24.538Z,3.86
2023-02-24T21:30:51.621Z,3.73
2023-02-24T21:33:19.425Z,3.77
2023-02-24T21:35:56.911Z,3.84
2023-02-24T21:38:23.746Z,3.84
2023-02-24T21:40:51.944Z,3.98
2023-02-24T21:43:18.694Z,3.90
2023-02-24T21:45:45.493Z,3.82
2023-02-24T21:48:12.310Z,3.92
2023-02-24T21:50:39.209Z,3.87
2023-02-24T21:53:05.978Z,3.82
2023-02-24T21:55:32.762Z,3.87
2023-02-24T21:58:00.967Z,3.89
2023-02-24T22:00:27.729Z,3.78
2023-02-24T22:02:55.890Z,3.95
2023-02-24T22:05:24.760Z,3.94
2023-02-24T22:07:51.910Z,3.77
2023-02-24T22:10:20.200Z,3.75
2023-02-24T22:12:47.474Z,3.84
2023-02-24T22:15:15.686Z,3.97
2023-02-24T22:17:42.889Z,4.04
2023-02-24T22:20:12.767Z,3.78
2023-02-24T22:22:41.804Z,3.67
2023-02-24T22:25:09.858Z,3.76
2023-02-24T22:27:36.776Z,3.73
2023-02-24T22:30:04.545Z,3.87
2023-02-24T22:32:32.811Z,4.18
2023-02-24T22:34:59.657Z,4.27
2023-02-24T22:37:26.449Z,4.29
2023-02-24T22:39:53.194Z,4.16
2023-02-24T22:42:19.897Z,4.05
2023-02-24T22:44:46.680Z,3.74
2023-02-24T22:47:13.420Z,3.62
2023-02-24T22:49:41.690Z,3.56
2023-02-24T22:52:08.472Z,3.98
2023-02-24T22:54:35.275Z,3.96
2023-02-24T22:57:04.340Z,3.94
2023-02-24T22:59:31.120Z,3.94
2023-02-24T23:01:57.883Z,4.07
2023-02-24T23:04:24.708Z,3.85
2023-02-24T23:06:52.948Z,4.00
2023-02-24T23:09:20.007Z,4.04
2023-02-24T23:11:47.355Z,4.11
2023-02-24T23:14:15.528Z,4.12
2023-02-24T23:16:44.618Z,4.01
2023-02-24T23:19:14.132Z,3.94
2023-02-24T23:21:42.593Z,4.10
2023-02-24T23:24:13.608Z,4.02
2023-02-24T23:26:42.936Z,3.95
2023-02-24T23:29:10.741Z,4.02
2023-02-24T23:31:38.569Z,3.97
2023-02-24T23:34:05.492Z,4.02
2023-02-24T23:36:33.186Z,3.99
2023-02-24T23:38:59.996Z,3.96
2023-02-24T23:41:28.333Z,3.96
2023-02-24T23:43:55.095Z,3.97
2023-02-24T23:46:22.327Z,3.97
2023-02-24T23:48:51.319Z,3.99
2023-02-24T23:51:18.551Z,4.03
2023-02-24T23:53:46.942Z,4.12
2023-02-24T23:56:16.397Z,4.09
2023-02-24T23:58:45.330Z,4.08
